Portada
METAR-TAF:

METAR-TAF

Aeropuertos :

Almagro, España

Base de Almagro

latitud: 38-57-11N, longitud: 3-44-29W, altitud: 629 m

Observación

El informe se hizo hace 17 minutos, a las 18:00 UTC
Viento 12 kt del oeste, variando entre sur-suroeste y oeste-noroeste
Temperatura 36°C
Humedad 18%
Presión 1018 hPa
Visibilidad 10 km o más
Escasas nubes a una altura de 4500 ft

METAR: LEAO 221800Z 26012KT 210V300 9999 FEW045 36/08 Q1018

Hora: 20:17 (18:17 UTC)

Pronóstico

El informe se hizo hace 1 hora y 17 minutos, a las 17:00 UTC
Pronóstico válido del 22 a las 18 UTC al 23 a las 03 UTC
Viento 6 kt del oeste-suroeste
Visibilidad 10 km o más
sin nubes por debajo de 1500 m y sin presencia de cumulonimbus.

TAF: LEAO 221700Z 2218/2303 24006KT CAVOK

Observaciones y pronósticos meteorológicos de más de 4000 aeropuertos (mensajes METAR y TAF).

Los puntos amarillos y rojos representan las estaciones disponibles.

Ponga el ratón en el punto deseado para ver el nombre de la estación.

Haga clic para ver las observaciones y los pronósticos meteorológicos.

Para cambiar el mapa : haga clic en los botones verdes con una cruz de color negro para hacer un zoom, en el botón verde con un guión para alejar o en las flechas verdes para mapas adyacentes.


METAR-TAF: